createdAt,value
2023-05-20T00:01:20.193Z,78.70
2023-05-20T00:03:48.169Z,78.86
2023-05-20T00:06:17.499Z,78.95
2023-05-20T00:08:45.341Z,78.91
2023-05-20T00:11:12.979Z,79.04
2023-05-20T00:13:40.639Z,79.05
2023-05-20T00:16:08.466Z,78.96
2023-05-20T00:18:36.427Z,79.36
2023-05-20T00:21:04.093Z,79.29
2023-05-20T00:23:33.253Z,79.58
2023-05-20T00:26:01.068Z,79.63
2023-05-20T00:28:28.910Z,79.53
2023-05-20T00:30:56.611Z,79.47
2023-05-20T00:33:24.272Z,79.56
2023-05-20T00:35:51.952Z,79.62
2023-05-20T00:38:20.179Z,79.55
2023-05-20T00:40:49.596Z,79.46
2023-05-20T00:43:17.414Z,79.71
2023-05-20T00:45:45.063Z,79.55
2023-05-20T00:48:13.606Z,79.59
2023-05-20T00:50:41.521Z,79.64
2023-05-20T00:53:10.031Z,79.66
2023-05-20T00:55:38.336Z,79.61
2023-05-20T00:58:07.471Z,79.47
2023-05-20T01:00:36.389Z,79.56
2023-05-20T01:03:04.191Z,79.70
2023-05-20T01:05:32.167Z,79.83
2023-05-20T01:07:59.866Z,79.95
2023-05-20T01:10:30.373Z,80.04
2023-05-20T01:13:02.728Z,80.16
2023-05-20T01:15:32.955Z,79.97
2023-05-20T01:18:06.302Z,80.08
2023-05-20T01:20:34.758Z,80.15
2023-05-20T01:23:04.427Z,80.18
2023-05-20T01:25:32.460Z,80.31
2023-05-20T01:28:00.285Z,80.24
2023-05-20T01:30:32.058Z,80.28
2023-05-20T01:33:08.623Z,80.35
2023-05-20T01:35:37.465Z,80.39
2023-05-20T01:38:07.787Z,80.60
2023-05-20T01:40:36.123Z,80.61
2023-05-20T01:43:04.608Z,80.83
2023-05-20T01:45:32.678Z,80.70
2023-05-20T01:48:01.718Z,80.70
2023-05-20T01:50:29.488Z,80.76
2023-05-20T01:52:57.288Z,80.86
2023-05-20T01:55:27.201Z,80.88
2023-05-20T01:57:55.716Z,80.69
2023-05-20T02:00:23.850Z,80.77
2023-05-20T02:02:51.961Z,80.75
2023-05-20T02:05:19.791Z,80.79
2023-05-20T02:07:47.697Z,80.74
2023-05-20T02:10:15.388Z,80.82
2023-05-20T02:12:44.982Z,80.84
2023-05-20T02:15:12.939Z,80.73
2023-05-20T02:17:43.758Z,80.88
2023-05-20T02:20:12.468Z,80.93
2023-05-20T02:22:40.206Z,80.82
2023-05-20T02:25:09.390Z,80.80
2023-05-20T02:27:37.634Z,81.02
2023-05-20T02:30:08.376Z,80.92
2023-05-20T02:32:36.410Z,81.21
2023-05-20T02:35:04.252Z,81.29
2023-05-20T02:37:31.993Z,81.29
2023-05-20T02:39:59.792Z,81.47
2023-05-20T02:42:27.448Z,81.47
2023-05-20T02:44:58.526Z,81.69
2023-05-20T02:47:28.252Z,81.80
2023-05-20T02:49:56.516Z,81.66
2023-05-20T02:52:24.243Z,81.66
2023-05-20T02:54:52.809Z,81.46
2023-05-20T02:57:20.700Z,81.61
2023-05-20T02:59:48.587Z,81.85
2023-05-20T03:02:16.385Z,81.68
2023-05-20T03:04:46.841Z,81.65
2023-05-20T03:07:17.693Z,81.77
2023-05-20T03:09:45.348Z,81.65
2023-05-20T03:12:13.040Z,81.78
2023-05-20T03:14:40.698Z,81.51
2023-05-20T03:17:09.350Z,81.73
2023-05-20T03:19:37.091Z,81.77
2023-05-20T03:22:07.386Z,81.69
2023-05-20T03:24:35.714Z,81.92
2023-05-20T03:27:03.641Z,81.93
2023-05-20T03:29:31.324Z,82.06
2023-05-20T03:31:59.095Z,81.93
2023-05-20T03:34:28.121Z,82.21
2023-05-20T03:36:57.408Z,82.26
2023-05-20T03:39:26.562Z,82.66
2023-05-20T03:41:54.340Z,82.35
2023-05-20T03:44:22.023Z,82.86
2023-05-20T03:46:50.163Z,82.51
2023-05-20T03:49:17.913Z,82.55
2023-05-20T03:51:45.698Z,82.77
2023-05-20T03:54:16.677Z,82.56
2023-05-20T03:56:50.515Z,82.78
2023-05-20T03:59:18.168Z,82.94
2023-05-20T04:01:47.101Z,82.93
2023-05-20T04:04:15.240Z,82.93
2023-05-20T04:06:43.291Z,83.01
2023-05-20T04:09:11.120Z,82.89
2023-05-20T04:11:38.820Z,82.90
2023-05-20T04:14:08.060Z,83.10
2023-05-20T04:16:37.346Z,83.03
2023-05-20T04:19:05.591Z,82.88
2023-05-20T04:21:33.492Z,83.25
2023-05-20T04:24:01.289Z,83.13
2023-05-20T04:26:28.993Z,83.25
2023-05-20T04:28:59.103Z,83.43
2023-05-20T04:31:28.778Z,83.38
2023-05-20T04:33:56.790Z,83.47
2023-05-20T04:36:28.760Z,83.59
2023-05-20T04:38:57.192Z,83.57
2023-05-20T04:41:25.101Z,83.50
2023-05-20T04:43:53.856Z,83.79
2023-05-20T04:46:21.585Z,83.75
2023-05-20T04:48:50.765Z,83.89
2023-05-20T04:51:18.583Z,83.80
2023-05-20T04:53:46.489Z,83.67
2023-05-20T04:56:15.487Z,83.92
2023-05-20T04:58:43.864Z,83.93
2023-05-20T05:01:11.726Z,84.06
2023-05-20T05:03:39.435Z,84.21
2023-05-20T05:06:08.717Z,84.15
2023-05-20T05:08:36.402Z,84.25
2023-05-20T05:11:06.708Z,84.15
2023-05-20T05:13:34.677Z,84.14
2023-05-20T05:16:03.659Z,84.54
2023-05-20T05:18:32.927Z,84.30
2023-05-20T05:21:02.300Z,84.43
2023-05-20T05:23:32.038Z,84.33
2023-05-20T05:26:00.553Z,84.36
2023-05-20T05:28:28.730Z,84.19
2023-05-20T05:30:57.076Z,84.24
2023-05-20T05:33:24.839Z,84.03
2023-05-20T05:35:53.223Z,84.18
2023-05-20T05:38:21.025Z,84.04
2023-05-20T05:40:50.108Z,83.97
2023-05-20T05:43:18.384Z,84.18
2023-05-20T05:45:48.750Z,84.00
2023-05-20T05:48:16.538Z,83.89
2023-05-20T05:50:46.890Z,84.03
2023-05-20T05:53:16.577Z,84.25
2023-05-20T05:55:47.605Z,84.34
2023-05-20T05:58:17.741Z,84.47
2023-05-20T06:00:45.988Z,84.65
2023-05-20T06:03:13.762Z,84.78
2023-05-20T06:05:41.454Z,84.66
2023-05-20T06:08:09.256Z,84.68
2023-05-20T06:10:37.648Z,84.84
2023-05-20T06:13:05.902Z,84.78
2023-05-20T06:15:36.619Z,84.56
2023-05-20T06:18:04.760Z,84.32
2023-05-20T06:20:33.815Z,84.36
2023-05-20T06:23:04.032Z,84.21
2023-05-20T06:25:43.909Z,84.34
2023-05-20T06:28:12.632Z,84.52
2023-05-20T06:30:43.412Z,84.28
2023-05-20T06:33:11.604Z,84.14
2023-05-20T06:35:39.437Z,83.86
2023-05-20T06:38:07.140Z,83.16
2023-05-20T06:40:34.935Z,82.75
2023-05-20T06:43:02.601Z,82.69
2023-05-20T06:45:50.868Z,82.13
2023-05-20T06:48:24.248Z,81.34
2023-05-20T06:50:52.051Z,81.23
2023-05-20T06:53:19.991Z,80.89
2023-05-20T06:55:47.897Z,80.55
2023-05-20T06:58:15.688Z,80.43
2023-05-20T07:00:44.480Z,80.41
2023-05-20T07:03:13.948Z,80.38
2023-05-20T07:05:41.672Z,80.55
2023-05-20T07:08:11.338Z,80.68
2023-05-20T07:10:39.309Z,80.02
2023-05-20T07:13:07.362Z,80.27
2023-05-20T07:15:35.265Z,79.96
2023-05-20T07:18:03.145Z,80.16
2023-05-20T07:20:32.291Z,80.08
2023-05-20T07:23:04.465Z,80.37
2023-05-20T07:25:38.798Z,79.90
2023-05-20T07:28:08.133Z,79.97
2023-05-20T07:30:36.773Z,80.13
2023-05-20T07:33:16.395Z,79.26
2023-05-20T07:35:47.321Z,79.17
2023-05-20T07:38:15.104Z,78.95
2023-05-20T07:40:44.795Z,78.70
2023-05-20T07:43:12.600Z,78.35
2023-05-20T07:45:40.650Z,77.53
2023-05-20T07:48:08.946Z,76.47
2023-05-20T07:50:37.895Z,75.83
2023-05-20T07:53:07.061Z,75.90
2023-05-20T07:55:37.077Z,75.06
2023-05-20T07:58:06.212Z,75.83
2023-05-20T08:00:35.828Z,76.00
2023-05-20T08:03:08.152Z,76.16
2023-05-20T08:06:08.938Z,75.17
2023-05-20T08:08:40.550Z,73.63
2023-05-20T08:11:14.925Z,72.88
2023-05-20T08:13:42.978Z,73.09
2023-05-20T08:16:10.950Z,72.79
2023-05-20T08:18:38.800Z,73.17
2023-05-20T08:21:07.916Z,73.42
2023-05-20T08:23:38.718Z,73.97
2023-05-20T08:26:09.327Z,73.79
2023-05-20T08:28:41.147Z,72.90
2023-05-20T08:31:09.767Z,71.84
2023-05-20T08:33:37.832Z,71.73
2023-05-20T08:36:06.553Z,71.32
2023-05-20T08:38:34.462Z,71.95
2023-05-20T08:41:03.935Z,72.05
2023-05-20T08:43:34.408Z,71.45
2023-05-20T08:46:06.567Z,72.46
2023-05-20T08:48:36.909Z,70.13
2023-05-20T08:51:05.196Z,70.09
2023-05-20T08:53:32.988Z,70.54
2023-05-20T08:56:03.581Z,68.18
2023-05-20T08:58:33.615Z,68.34
2023-05-20T09:01:02.425Z,68.45
2023-05-20T09:03:30.520Z,67.92
2023-05-20T09:06:05.663Z,67.67
2023-05-20T09:08:34.225Z,65.59
2023-05-20T09:11:02.951Z,65.69
2023-05-20T09:13:33.977Z,64.12
2023-05-20T09:16:02.702Z,62.74
2023-05-20T09:18:30.986Z,62.08
2023-05-20T09:20:58.908Z,62.89
2023-05-20T09:23:28.007Z,61.46
2023-05-20T09:25:55.718Z,61.06
2023-05-20T09:28:25.665Z,60.87
2023-05-20T09:30:59.830Z,59.37
2023-05-20T09:33:32.153Z,59.84
2023-05-20T09:36:08.511Z,59.73
2023-05-20T09:38:40.077Z,60.18
2023-05-20T09:41:09.320Z,61.25
2023-05-20T09:43:37.597Z,59.29
2023-05-20T09:46:07.122Z,60.00
2023-05-20T09:48:37.181Z,59.84
2023-05-20T09:51:06.150Z,59.61
2023-05-20T09:53:34.013Z,59.11
2023-05-20T09:56:01.780Z,58.87
2023-05-20T09:58:30.615Z,59.90
2023-05-20T10:00:58.515Z,59.48
2023-05-20T10:03:28.062Z,57.39
2023-05-20T10:06:11.918Z,57.85
2023-05-20T10:08:56.987Z,57.87
2023-05-20T10:11:36.813Z,59.16
2023-05-20T10:14:23.291Z,57.78
2023-05-20T10:16:54.959Z,56.76
2023-05-20T10:19:30.289Z,57.29
2023-05-20T10:21:59.632Z,57.56
2023-05-20T10:24:33.102Z,56.79
2023-05-20T10:27:03.331Z,56.85
2023-05-20T10:29:31.958Z,56.30
2023-05-20T10:31:59.678Z,55.71
2023-05-20T10:34:29.018Z,55.74
2023-05-20T10:37:00.216Z,56.33
2023-05-20T10:39:29.444Z,55.62
2023-05-20T10:42:07.432Z,55.81
2023-05-20T10:44:45.422Z,54.06
2023-05-20T10:49:47.736Z,53.52
2023-05-20T10:52:16.096Z,54.02
2023-05-20T10:54:49.400Z,53.83
2023-05-20T10:57:19.538Z,53.71
2023-05-20T10:59:48.445Z,54.33
2023-05-20T11:02:17.431Z,54.74
2023-05-20T11:04:47.105Z,54.50
2023-05-20T11:07:25.266Z,55.54
2023-05-20T11:09:53.022Z,54.64
2023-05-20T11:12:21.650Z,53.08
2023-05-20T11:14:49.806Z,53.42
2023-05-20T11:17:18.289Z,53.19
2023-05-20T11:19:49.253Z,53.70
2023-05-20T11:22:17.214Z,52.88
2023-05-20T11:24:44.905Z,53.53
2023-05-20T11:27:12.673Z,54.20
2023-05-20T11:29:41.370Z,55.50
2023-05-20T11:32:09.414Z,55.32
2023-05-20T11:34:38.537Z,55.46
2023-05-20T11:37:09.897Z,54.36
2023-05-20T11:39:39.045Z,54.40
2023-05-20T11:42:07.023Z,56.02
2023-05-20T11:44:35.265Z,55.52
2023-05-20T11:47:04.110Z,55.77
2023-05-20T11:49:32.121Z,55.28
2023-05-20T11:51:59.786Z,52.73
2023-05-20T11:54:29.066Z,54.21
2023-05-20T11:56:56.964Z,51.29
2023-05-20T11:59:25.442Z,52.04
2023-05-20T12:01:53.107Z,51.78
2023-05-20T12:04:21.996Z,52.80
2023-05-20T12:06:49.717Z,52.03
2023-05-20T12:09:17.599Z,51.72
2023-05-20T12:11:46.587Z,51.41
2023-05-20T12:14:14.464Z,52.66
2023-05-20T12:16:42.246Z,52.38
2023-05-20T12:19:09.930Z,52.73
2023-05-20T12:21:37.868Z,53.04
2023-05-20T12:24:07.088Z,53.84
2023-05-20T12:26:36.103Z,54.12
2023-05-20T12:29:05.122Z,52.58
2023-05-20T12:31:34.969Z,52.29
2023-05-20T12:34:02.858Z,54.20
2023-05-20T12:36:31.543Z,52.48
2023-05-20T12:38:59.261Z,52.76
2023-05-20T12:41:26.929Z,54.07
2023-05-20T12:43:54.997Z,53.94
2023-05-20T12:46:24.278Z,54.20
2023-05-20T12:48:52.342Z,53.27
2023-05-20T12:51:21.205Z,52.80
2023-05-20T12:53:48.999Z,52.62
2023-05-20T12:56:17.005Z,53.30
2023-05-20T12:58:44.632Z,52.26
2023-05-20T13:01:12.344Z,53.60
2023-05-20T13:03:41.686Z,52.69
2023-05-20T13:06:09.649Z,52.22
2023-05-20T13:08:37.398Z,51.46
2023-05-20T13:11:05.294Z,51.10
2023-05-20T13:13:33.084Z,51.29
2023-05-20T13:16:00.749Z,52.53
2023-05-20T13:18:28.405Z,53.37
2023-05-20T13:20:57.439Z,51.80
2023-05-20T13:23:25.211Z,51.67
2023-05-20T13:25:52.894Z,51.12
2023-05-20T13:28:21.571Z,51.51
2023-05-20T13:30:49.269Z,53.15
2023-05-20T13:33:17.123Z,52.85
2023-05-20T13:35:44.759Z,52.25
2023-05-20T13:38:13.892Z,51.86
2023-05-20T13:40:41.600Z,51.75
2023-05-20T13:43:09.708Z,52.73
2023-05-20T13:45:37.332Z,51.76
2023-05-20T13:48:05.609Z,52.61
2023-05-20T13:50:33.449Z,52.19
2023-05-20T13:53:01.225Z,52.01
2023-05-20T13:55:30.324Z,52.46
2023-05-20T13:57:58.080Z,51.61
2023-05-20T14:00:25.984Z,52.52
2023-05-20T14:02:53.746Z,52.43
2023-05-20T14:05:21.553Z,51.59
2023-05-20T14:07:49.214Z,52.61
2023-05-20T14:10:17.159Z,52.84
2023-05-20T14:12:48.102Z,52.32
2023-05-20T14:15:16.193Z,53.56
2023-05-20T14:17:43.844Z,52.78
2023-05-20T14:20:12.232Z,52.23
2023-05-20T14:22:39.885Z,53.16
2023-05-20T14:25:08.772Z,51.86
2023-05-20T14:27:36.634Z,51.69
2023-05-20T14:30:07.482Z,52.91
2023-05-20T14:32:35.150Z,52.23
2023-05-20T14:35:03.300Z,51.42
2023-05-20T14:37:30.977Z,50.63
2023-05-20T14:39:58.746Z,49.83
2023-05-20T14:42:26.711Z,48.88
2023-05-20T14:44:54.474Z,48.74
2023-05-20T14:47:23.719Z,47.96
2023-05-20T14:49:51.588Z,47.83
2023-05-20T14:52:19.879Z,48.99
2023-05-20T14:54:47.712Z,48.80
2023-05-20T14:57:15.891Z,47.71
2023-05-20T14:59:43.963Z,47.38
2023-05-20T15:02:15.436Z,47.73
2023-05-20T15:04:46.764Z,47.76
2023-05-20T15:07:15.064Z,47.60
2023-05-20T15:09:43.661Z,46.00
2023-05-20T15:12:12.335Z,45.70
2023-05-20T15:14:58.567Z,47.57
2023-05-20T15:17:26.693Z,48.72
2023-05-20T15:19:55.692Z,48.54
2023-05-20T15:22:24.172Z,49.62
2023-05-20T15:24:51.854Z,50.01
2023-05-20T15:27:19.926Z,50.49
2023-05-20T15:29:48.676Z,49.63
2023-05-20T15:32:19.860Z,48.51
2023-05-20T15:34:47.832Z,48.95
2023-05-20T15:37:17.047Z,47.42
2023-05-20T15:39:44.747Z,45.74
2023-05-20T15:42:13.837Z,45.64
2023-05-20T15:44:41.563Z,46.05
2023-05-20T15:47:09.217Z,46.12
2023-05-20T15:49:37.009Z,47.30
2023-05-20T15:52:05.468Z,47.52
2023-05-20T15:54:34.501Z,47.13
2023-05-20T15:57:02.531Z,46.86
2023-05-20T15:59:30.619Z,47.86
2023-05-20T16:01:58.476Z,47.19
2023-05-20T16:04:26.292Z,47.58
2023-05-20T16:06:53.959Z,48.10
2023-05-20T16:09:22.184Z,48.69
2023-05-20T16:11:51.370Z,49.82
2023-05-20T16:14:19.153Z,49.35
2023-05-20T16:16:46.982Z,49.82
2023-05-20T16:19:14.840Z,50.25
2023-05-20T16:21:42.657Z,52.22
2023-05-20T16:24:10.622Z,53.63
2023-05-20T16:26:38.538Z,53.76
2023-05-20T16:29:07.525Z,54.61
2023-05-20T16:31:35.715Z,54.08
2023-05-20T16:34:04.733Z,54.38
2023-05-20T16:36:32.627Z,54.51
2023-05-20T16:39:00.384Z,55.32
2023-05-20T16:41:28.637Z,55.45
2023-05-20T16:43:56.259Z,55.77
2023-05-20T16:46:25.480Z,56.03
2023-05-20T16:48:53.098Z,55.44
2023-05-20T16:51:20.932Z,55.78
2023-05-20T16:53:48.575Z,55.93
2023-05-20T16:56:16.394Z,56.60
2023-05-20T16:58:44.011Z,56.83
2023-05-20T17:01:12.003Z,56.53
2023-05-20T17:03:41.143Z,57.07
2023-05-20T17:06:09.504Z,57.35
2023-05-20T17:08:37.997Z,57.26
2023-05-20T17:11:06.149Z,57.13
2023-05-20T17:13:33.784Z,57.40
2023-05-20T17:16:01.704Z,57.73
2023-05-20T17:18:29.456Z,58.08
2023-05-20T17:20:58.547Z,58.52
2023-05-20T17:23:26.322Z,58.24
2023-05-20T17:25:53.953Z,58.85
2023-05-20T17:28:22.209Z,58.60
2023-05-20T17:30:49.868Z,58.78
2023-05-20T17:33:17.771Z,58.71
2023-05-20T17:35:45.517Z,58.98
2023-05-20T17:38:14.721Z,59.24
2023-05-20T17:40:42.395Z,59.22
2023-05-20T17:43:10.427Z,59.11
2023-05-20T17:45:38.033Z,59.17
2023-05-20T17:48:08.774Z,59.43
2023-05-20T17:50:38.682Z,60.31
2023-05-20T17:53:06.901Z,59.73
2023-05-20T17:55:36.959Z,59.97
2023-05-20T17:58:04.958Z,59.97
2023-05-20T18:00:34.484Z,59.82
2023-05-20T18:03:02.726Z,60.07
2023-05-20T18:05:30.644Z,60.02
2023-05-20T18:07:58.361Z,60.40
2023-05-20T18:10:26.326Z,60.65
2023-05-20T18:12:55.342Z,60.93
2023-05-20T18:15:23.515Z,61.35
2023-05-20T18:17:51.213Z,60.97
2023-05-20T18:20:19.292Z,61.12
2023-05-20T18:22:46.978Z,61.21
2023-05-20T18:25:15.092Z,61.04
2023-05-20T18:27:43.652Z,61.72
2023-05-20T18:30:12.975Z,61.88
2023-05-20T18:32:40.655Z,62.17
2023-05-20T18:35:09.084Z,62.20
2023-05-20T18:37:36.779Z,62.46
2023-05-20T18:40:06.450Z,62.61
2023-05-20T18:42:34.235Z,63.22
2023-05-20T18:45:02.227Z,63.42
2023-05-20T18:47:31.397Z,63.46
2023-05-20T18:49:59.243Z,63.93
2023-05-20T18:52:27.051Z,64.11
2023-05-20T18:54:54.857Z,64.10
2023-05-20T18:57:22.650Z,64.52
2023-05-20T18:59:50.655Z,64.85
2023-05-20T19:02:18.612Z,64.71
2023-05-20T19:04:47.758Z,65.08
2023-05-20T19:07:15.566Z,65.24
2023-05-20T19:09:43.201Z,65.48
2023-05-20T19:12:11.312Z,65.69
2023-05-20T19:14:38.945Z,65.56
2023-05-20T19:17:06.999Z,65.88
2023-05-20T19:19:34.767Z,66.16
2023-05-20T19:22:04.156Z,66.43
2023-05-20T19:24:32.266Z,66.52
2023-05-20T19:27:00.387Z,66.52
2023-05-20T19:29:28.131Z,67.37
2023-05-20T19:31:56.585Z,67.59
2023-05-20T19:34:24.471Z,67.92
2023-05-20T19:36:52.271Z,68.17
2023-05-20T19:39:22.154Z,68.34
2023-05-20T19:41:50.160Z,68.68
2023-05-20T19:44:18.983Z,68.94
2023-05-20T19:46:48.053Z,69.20
2023-05-20T19:49:15.845Z,69.34
2023-05-20T19:51:44.009Z,69.77
2023-05-20T19:54:12.016Z,70.36
2023-05-20T19:56:41.048Z,70.38
2023-05-20T19:59:08.673Z,71.09
2023-05-20T20:01:36.466Z,72.04
2023-05-20T20:04:04.288Z,71.69
2023-05-20T20:06:32.400Z,72.11
2023-05-20T20:09:00.349Z,72.49
2023-05-20T20:11:28.080Z,72.52
2023-05-20T20:13:58.410Z,72.93
2023-05-20T20:16:26.853Z,72.99
2023-05-20T20:18:55.266Z,73.03
2023-05-20T20:21:25.667Z,73.75
2023-05-20T20:23:53.954Z,73.86
2023-05-20T20:26:25.818Z,73.96
2023-05-20T20:28:53.729Z,73.90
2023-05-20T20:31:22.766Z,73.90
2023-05-20T20:33:51.508Z,74.23
2023-05-20T20:36:19.156Z,74.32
2023-05-20T20:38:47.730Z,74.45
2023-05-20T20:41:16.674Z,74.45
2023-05-20T20:43:45.074Z,74.58
2023-05-20T20:46:14.683Z,74.88
2023-05-20T20:48:45.991Z,74.97
2023-05-20T20:51:14.280Z,75.19
2023-05-20T20:53:42.857Z,75.40
2023-05-20T20:56:11.348Z,75.60
2023-05-20T20:58:39.843Z,75.66
2023-05-20T21:01:10.106Z,76.17
2023-05-20T21:03:40.369Z,76.22
2023-05-20T21:06:09.992Z,76.69
2023-05-20T21:08:37.632Z,76.71
2023-05-20T21:11:05.855Z,77.09
2023-05-20T21:13:33.919Z,77.09
2023-05-20T21:16:01.605Z,77.11
2023-05-20T21:18:29.281Z,77.25
2023-05-20T21:20:57.446Z,77.72
2023-05-20T21:23:26.415Z,77.89
2023-05-20T21:25:54.094Z,78.37
2023-05-20T21:28:22.415Z,78.69
2023-05-20T21:30:50.518Z,79.16
2023-05-20T21:33:18.232Z,79.60
2023-05-20T21:35:49.561Z,79.34
2023-05-20T21:38:17.409Z,79.98
2023-05-20T21:40:48.622Z,79.53
2023-05-20T21:43:16.448Z,79.46
2023-05-20T21:45:45.805Z,79.75
2023-05-20T21:48:13.800Z,79.90
2023-05-20T21:50:43.227Z,80.15
2023-05-20T21:53:11.101Z,80.06
2023-05-20T21:55:39.292Z,80.40
2023-05-20T21:58:08.296Z,80.36
2023-05-20T22:00:36.543Z,80.76
2023-05-20T22:03:04.475Z,80.89
2023-05-20T22:05:34.719Z,81.05
2023-05-20T22:08:03.395Z,80.93
2023-05-20T22:10:34.355Z,81.31
2023-05-20T22:13:02.959Z,81.36
2023-05-20T22:15:32.274Z,81.27
2023-05-20T22:18:00.114Z,81.41
2023-05-20T22:20:28.641Z,81.49
2023-05-20T22:22:56.341Z,81.70
2023-05-20T22:25:23.997Z,81.94
2023-05-20T22:27:51.934Z,81.64
2023-05-20T22:30:19.580Z,81.73
2023-05-20T22:32:48.819Z,81.74
2023-05-20T22:35:16.727Z,82.06
2023-05-20T22:37:44.704Z,83.06
2023-05-20T22:40:12.783Z,82.33
2023-05-20T22:42:40.776Z,82.87
2023-05-20T22:45:09.757Z,82.93
2023-05-20T22:47:37.419Z,83.01
2023-05-20T22:50:07.959Z,82.93
2023-05-20T22:52:36.710Z,83.27
2023-05-20T22:55:04.688Z,83.33
2023-05-20T22:57:32.732Z,83.62
2023-05-20T23:00:00.779Z,83.72
2023-05-20T23:02:30.387Z,83.22
2023-05-20T23:04:58.362Z,83.57
2023-05-20T23:07:27.849Z,83.41
2023-05-20T23:09:55.730Z,83.48
2023-05-20T23:12:23.525Z,83.61
2023-05-20T23:14:51.714Z,83.51
2023-05-20T23:17:19.389Z,83.47
2023-05-20T23:19:47.375Z,83.32
2023-05-20T23:22:15.251Z,83.61
2023-05-20T23:24:44.386Z,83.90
2023-05-20T23:27:12.011Z,83.96
2023-05-20T23:29:39.702Z,84.33
2023-05-20T23:32:07.907Z,84.48
2023-05-20T23:34:35.997Z,83.99
2023-05-20T23:37:03.667Z,83.89
2023-05-20T23:39:31.544Z,83.61
2023-05-20T23:42:00.994Z,83.75
2023-05-20T23:44:28.650Z,83.46
2023-05-20T23:46:56.279Z,83.35
2023-05-20T23:49:27.237Z,83.31
2023-05-20T23:51:55.346Z,83.42
2023-05-20T23:54:23.440Z,83.48
2023-05-20T23:56:51.137Z,83.34
2023-05-20T23:59:20.229Z,83.74
